Livermore Falls, Maine
Current Conditions -  °F | °C
As of 6:53 AM on Friday 24 Oct 2014 (Local Time) from KAUG Reporting Station
Overcast Overcast  
Wind Chill: 38°   Ceiling: 800
Heat Index: 45°   Visibility: 10mi
Dew Point: 44°   Wind: 15mph
Humidity: 97%   Direction: 360°N
Pressure: 29.69"   Gusts: 22mph
Location:  44.48°N, 70.19°W
Report Text: KAUG 241053Z AUTO 36013G19KT 10SM OVC008 07/07 A2969 RMK AO2 CIG 007V011 SLP056 T00720067
Loading
Personal Weather Stations






























Interactive Weather Map
Tropical Storm Tracking
New forecast layout! Learn more

10-Day Weather Forecast

Advertisements
Track Severe Weather on mobile